Time;durP1;ratioP1;P1;durP2;ratioP2;P2;SDS_P1;SDS_P2;PMS_P1;PMS_P2;Temp;Humidity;BMP_temperature;BMP_pressure;BME280_temperature;BME280_humidity;BME280_pressure;Samples;Min_cycle;Max_cycle;Signal;HPM_P1;HPM_P2
2023/07/06 00:01:02;;;;;;;8.80;8.00;;;;;;;24.43;57.93;100122.35;109361;1254;63641;-73
2023/07/06 00:03:31;;;;;;;8.80;8.00;;;;;;;24.40;58.22;100124.10;109328;1255;58258;-73
2023/07/06 00:06:00;;;;;;;9.30;8.40;;;;;;;24.35;58.16;100125.88;109310;1256;62959;-73
2023/07/06 00:08:27;;;;;;;9.70;8.30;;;;;;;24.31;58.09;100124.21;109296;1256;58083;-73
2023/07/06 00:10:55;;;;;;;9.60;8.70;;;;;;;24.27;58.25;100121.86;109329;1254;58535;-74
2023/07/06 00:13:23;;;;;;;9.10;8.10;;;;;;;24.25;58.26;100122.43;109331;1255;63627;-73
2023/07/06 00:15:51;;;;;;;9.10;8.20;;;;;;;24.23;58.27;100121.08;109335;1256;58207;-74
2023/07/06 00:18:20;;;;;;;10.40;8.40;;;;;;;24.20;58.37;100115.63;109301;1256;62562;-73
2023/07/06 00:20:49;;;;;;;9.30;8.50;;;;;;;24.18;58.47;100113.78;109336;1255;58197;-72
2023/07/06 00:23:17;;;;;;;9.60;8.60;;;;;;;24.16;58.44;100116.50;109327;1256;58188;-72
2023/07/06 00:25:45;;;;;;;8.70;7.90;;;;;;;24.15;58.37;100116.30;109308;1255;64867;-72
2023/07/06 00:28:14;;;;;;;9.90;8.90;;;;;;;24.13;58.46;100112.45;109296;1255;58156;-73
2023/07/06 00:33:16;;;;;;;9.50;8.50;;;;;;;24.08;58.72;100114.80;109311;1256;58168;-72
2023/07/06 00:35:44;;;;;;;10.30;9.30;;;;;;;24.05;58.76;100112.62;109329;1255;58171;-72
2023/07/06 00:38:14;;;;;;;8.90;8.10;;;;;;;24.03;58.98;100112.62;109313;1256;64998;-73
2023/07/06 00:40:56;;;;;;;9.40;8.60;;;;;;;24.01;59.05;100115.70;109338;1254;58225;-72
2023/07/06 00:43:27;;;;;;;9.50;8.40;;;;;;;23.99;58.99;100115.80;109314;1256;62478;-72
2023/07/06 00:46:03;;;;;;;9.20;8.30;;;;;;;23.97;59.01;100118.77;109310;1256;58149;-72
2023/07/06 00:48:37;;;;;;;9.50;8.70;;;;;;;23.94;59.15;100124.43;109374;1256;58114;-72
2023/07/06 00:51:10;;;;;;;9.60;8.80;;;;;;;23.92;59.28;100122.80;109303;1256;63735;-72
2023/07/06 00:53:38;;;;;;;9.30;8.40;;;;;;;23.91;59.33;100122.67;109216;1255;58165;-73
2023/07/06 00:56:06;;;;;;;10.00;8.90;;;;;;;23.90;59.37;100121.15;109321;1256;63816;-72
2023/07/06 00:58:37;;;;;;;9.70;8.80;;;;;;;23.88;59.42;100118.38;109175;1256;58179;-72
2023/07/06 01:01:06;;;;;;;10.10;9.10;;;;;;;23.86;59.38;100118.77;109195;1256;58177;-72
2023/07/06 01:03:35;;;;;;;10.30;9.00;;;;;;;23.84;59.48;100121.02;109150;1257;65128;-72
2023/07/06 01:06:03;;;;;;;10.20;9.20;;;;;;;23.82;59.45;100124.09;109133;1256;58228;-72
2023/07/06 01:08:35;;;;;;;10.10;9.20;;;;;;;23.81;59.55;100118.75;109128;1256;62442;-72
2023/07/06 01:11:03;;;;;;;10.60;9.00;;;;;;;23.78;59.47;100116.60;109129;1256;58180;-72
2023/07/06 01:13:32;;;;;;;10.20;9.10;;;;;;;23.75;59.54;100117.28;109142;1256;58213;-72
2023/07/06 01:16:02;;;;;;;9.90;9.00;;;;;;;23.69;59.72;100117.64;109151;1256;63681;-72
2023/07/06 01:18:40;;;;;;;10.30;9.30;;;;;;;23.66;59.68;100121.30;109212;1256;58380;-72
2023/07/06 01:21:25;;;;;;;10.30;9.30;;;;;;;23.64;59.78;100122.13;109259;1256;62724;-72
2023/07/06 01:23:59;;;;;;;9.70;8.90;;;;;;;23.62;59.76;100122.33;109153;1256;58162;-72
2023/07/06 01:26:42;;;;;;;10.30;9.30;;;;;;;23.63;59.88;100124.13;109285;1256;58231;-72
2023/07/06 01:29:48;;;;;;;10.60;9.50;;;;;;;23.62;59.80;100128.48;109117;1256;64932;-72
2023/07/06 01:32:17;;;;;;;10.60;9.50;;;;;;;23.61;59.85;100131.27;109190;1256;58215;-72
2023/07/06 01:34:54;;;;;;;10.20;9.20;;;;;;;23.59;59.87;100130.41;109124;1257;62516;-72
2023/07/06 01:37:35;;;;;;;10.10;9.20;;;;;;;23.58;59.85;100128.19;109056;1258;58042;-73
2023/07/06 01:40:09;;;;;;;9.60;8.70;;;;;;;23.58;59.93;100128.23;109054;1261;58359;-72
2023/07/06 01:42:40;;;;;;;10.40;9.40;;;;;;;23.54;59.78;100126.53;109246;1256;64905;-72
2023/07/06 01:45:10;;;;;;;10.30;9.30;;;;;;;23.52;59.88;100122.98;109006;1256;58225;-72
2023/07/06 01:47:40;;;;;;;10.20;9.30;;;;;;;23.49;59.82;100122.49;109133;1257;62476;-72
2023/07/06 01:50:09;;;;;;;10.90;9.90;;;;;;;23.47;59.64;100123.67;109061;1256;58164;-72
2023/07/06 01:52:46;;;;;;;10.10;9.10;;;;;;;23.46;59.87;100128.23;109267;1256;58195;-72
2023/07/06 01:55:27;;;;;;;11.20;10.20;;;;;;;23.44;59.93;100129.59;109216;1256;64991;-72
2023/07/06 01:57:59;;;;;;;10.50;9.40;;;;;;;23.39;60.15;100132.05;109100;1256;58206;-72
2023/07/06 02:00:30;;;;;;;10.90;9.80;;;;;;;23.36;60.30;100133.95;109125;1259;62568;-72
2023/07/06 02:03:01;;;;;;;10.60;9.60;;;;;;;23.36;60.31;100140.02;109166;1257;58070;-72
2023/07/06 02:05:31;;;;;;;10.00;9.10;;;;;;;23.35;60.33;100142.04;109040;1257;58076;-72
2023/07/06 02:08:02;;;;;;;10.60;9.50;;;;;;;23.35;60.63;100143.00;109071;1256;63641;-72
2023/07/06 02:10:32;;;;;;;11.40;9.40;;;;;;;23.38;61.25;100145.99;109147;1257;58198;-73
2023/07/06 02:13:03;;;;;;;11.10;9.50;;;;;;;23.47;61.44;100149.53;109107;1257;63752;-73
2023/07/06 02:15:33;;;;;;;9.70;8.80;;;;;;;23.54;61.43;100151.35;109094;1257;58134;-73
2023/07/06 02:18:04;;;;;;;10.30;9.10;;;;;;;23.61;61.45;100160.09;109169;1257;58258;-72
2023/07/06 02:20:34;;;;;;;10.30;9.10;;;;;;;23.68;61.35;100156.73;109171;1257;64895;-72
2023/07/06 02:23:07;;;;;;;11.70;9.20;;;;;;;23.73;61.29;100155.46;109147;1257;58191;-73
2023/07/06 02:25:39;;;;;;;10.20;9.20;;;;;;;23.76;61.11;100155.17;109110;1257;62597;-73
2023/07/06 02:28:12;;;;;;;10.70;9.10;;;;;;;23.80;61.06;100155.22;109096;1257;58093;-73
2023/07/06 02:30:44;;;;;;;12.10;8.70;;;;;;;23.84;60.91;100150.86;109115;1257;58242;-72
2023/07/06 02:33:16;;;;;;;12.70;8.80;;;;;;;23.87;60.73;100147.90;109106;1256;63627;-72
2023/07/06 02:35:48;;;;;;;11.50;8.50;;;;;;;23.85;60.54;100146.09;109185;1256;58180;-72
2023/07/06 02:38:19;;;;;;;9.50;8.30;;;;;;;23.83;60.52;100148.11;109174;1257;63791;-72
2023/07/06 02:40:50;;;;;;;11.30;8.60;;;;;;;23.84;60.50;100141.90;109082;1257;58157;-72
2023/07/06 02:43:20;;;;;;;9.90;8.60;;;;;;;23.85;60.53;100139.58;109024;1256;58238;-72
2023/07/06 02:45:50;;;;;;;9.20;8.20;;;;;;;23.87;60.42;100137.11;109183;1256;64948;-72
2023/07/06 02:48:21;;;;;;;12.40;8.30;;;;;;;23.92;60.23;100135.17;109169;1257;58260;-72
2023/07/06 02:50:52;;;;;;;10.40;8.40;;;;;;;23.95;60.16;100138.27;109129;1256;63727;-73
2023/07/06 02:53:22;;;;;;;10.30;8.00;;;;;;;24.00;60.09;100141.44;109059;1263;58101;-73
2023/07/06 02:55:52;;;;;;;9.00;8.00;;;;;;;24.05;59.99;100141.30;109104;1257;58074;-73
2023/07/06 02:58:24;;;;;;;8.80;7.90;;;;;;;24.07;59.91;100139.46;108973;1257;64975;-73
2023/07/06 03:00:54;;;;;;;10.50;7.60;;;;;;;24.12;59.79;100137.98;109039;1257;58204;-73
2023/07/06 03:11:00;;;;;;;11.40;7.90;;;;;;;24.32;59.66;100118.48;102827;1292;599878;-73
2023/07/06 03:13:28;;;;;;;9.50;7.60;;;;;;;24.36;59.54;100123.48;104928;1269;59672;-72
2023/07/06 03:15:56;;;;;;;8.70;7.90;;;;;;;24.42;59.56;100126.45;104949;1265;59257;-73
2023/07/06 03:18:25;;;;;;;9.00;8.10;;;;;;;24.47;59.51;100125.16;104966;1265;63346;-72
2023/07/06 03:20:53;;;;;;;11.50;9.00;;;;;;;24.53;59.52;100117.65;104942;1271;59231;-72
2023/07/06 03:23:21;;;;;;;9.70;7.90;;;;;;;24.60;59.46;100111.54;104945;1270;62439;-72
2023/07/06 03:25:51;;;;;;;9.00;8.10;;;;;;;24.66;59.50;100109.86;104817;1268;188784;-73
2023/07/06 03:28:19;;;;;;;9.20;7.90;;;;;;;24.73;59.33;100111.48;104927;1265;59240;-72
2023/07/06 03:30:53;;;;;;;10.10;7.70;;;;;;;24.79;59.38;100108.92;104888;1271;63345;-73
2023/07/06 03:33:21;;;;;;;11.60;9.00;;;;;;;24.86;59.39;100110.23;104990;1279;59275;-72
2023/07/06 03:35:48;;;;;;;9.60;8.30;;;;;;;24.93;59.32;100105.98;104939;1267;62531;-73
2023/07/06 03:38:16;;;;;;;8.80;7.90;;;;;;;25.00;59.31;100105.08;105037;1269;59746;-73
2023/07/06 03:40:48;;;;;;;12.80;9.00;;;;;;;25.09;59.26;100105.70;104941;1269;60019;-73
2023/07/06 03:43:16;;;;;;;11.40;8.40;;;;;;;25.18;59.29;100108.71;108760;1263;64163;-72
2023/07/06 03:45:47;;;;;;;11.90;8.70;;;;;;;25.27;59.26;100105.49;108847;1264;57464;-73
2023/07/06 03:48:15;;;;;;;12.40;8.80;;;;;;;25.36;59.37;100099.17;108670;1263;62823;-73
2023/07/06 03:50:43;;;;;;;9.70;8.20;;;;;;;25.46;59.28;100098.39;108801;1263;57334;-72
2023/07/06 03:53:12;;;;;;;10.70;8.20;;;;;;;25.57;59.08;100101.66;108806;1264;57309;-73
2023/07/06 03:55:40;;;;;;;12.50;7.90;;;;;;;25.68;59.17;100102.54;108811;1262;64141;-73
2023/07/06 03:58:08;;;;;;;11.40;8.70;;;;;;;25.79;59.13;100101.85;108812;1264;57372;-73
2023/07/06 04:00:35;;;;;;;10.30;7.80;;;;;;;25.89;59.29;100102.67;108813;1264;62542;-73
2023/07/06 04:03:03;;;;;;;9.30;8.20;;;;;;;26.00;59.24;100101.10;108795;1264;57392;-73
2023/07/06 04:05:39;;;;;;;12.10;8.50;;;;;;;26.10;59.10;100100.09;108754;1264;57230;-73
2023/07/06 04:08:09;;;;;;;12.20;8.40;;;;;;;26.21;59.03;100096.71;108631;1264;63168;-73
2023/07/06 04:10:37;;;;;;;11.40;9.20;;;;;;;26.33;58.90;100094.55;108772;1263;66855;-73
2023/07/06 04:13:04;;;;;;;9.80;8.00;;;;;;;26.42;58.77;100092.98;108654;1264;63769;-73
2023/07/06 04:15:32;;;;;;;9.60;8.20;;;;;;;26.50;58.68;100096.39;108719;1263;57345;-72
2023/07/06 04:18:00;;;;;;;9.10;8.10;;;;;;;26.57;58.50;100092.83;108794;1263;57468;-73
2023/07/06 04:20:28;;;;;;;10.40;8.10;;;;;;;26.63;58.29;100087.59;108907;1260;62840;-74
2023/07/06 04:22:57;;;;;;;10.20;8.70;;;;;;;26.69;57.99;100085.41;108980;1260;57426;-74
2023/07/06 04:25:29;;;;;;;9.30;8.40;;;;;;;26.73;57.84;100091.80;108921;1260;63776;-74
2023/07/06 04:27:58;;;;;;;9.80;8.60;;;;;;;26.74;57.71;100096.30;108874;1263;57382;-74
2023/07/06 04:30:25;;;;;;;10.00;8.50;;;;;;;26.76;57.74;100092.97;108969;1260;57284;-73
2023/07/06 04:32:53;;;;;;;9.20;8.30;;;;;;;26.78;57.76;100088.09;108999;1260;64235;-73
2023/07/06 04:35:23;;;;;;;12.80;8.70;;;;;;;26.81;57.74;100089.40;108989;1260;57411;-73
2023/07/06 04:37:51;;;;;;;9.70;8.70;;;;;;;26.85;57.65;100086.19;108876;1260;63773;-73
2023/07/06 04:40:19;;;;;;;10.40;8.70;;;;;;;26.92;57.61;100082.27;108955;1263;57377;-73
2023/07/06 04:42:48;;;;;;;12.80;9.10;;;;;;;26.97;57.69;100077.63;108975;1260;57423;-73
2023/07/06 04:45:16;;;;;;;11.40;9.30;;;;;;;27.01;57.59;100075.60;109129;1256;64126;-74
2023/07/06 04:47:44;;;;;;;10.40;8.50;;;;;;;27.03;57.42;100083.02;109175;1256;58152;-73
2023/07/06 04:50:17;;;;;;;10.20;8.80;;;;;;;27.07;57.47;100089.98;109123;1257;63879;-73
2023/07/06 04:52:45;;;;;;;10.50;8.40;;;;;;;27.14;57.38;100097.66;109088;1257;57368;-73
2023/07/06 04:55:22;;;;;;;10.10;9.10;;;;;;;27.19;57.42;100094.80;109389;1254;57468;-73
2023/07/06 04:57:52;;;;;;;12.10;9.00;;;;;;;27.25;57.31;100096.40;109493;1253;62837;-74
2023/07/06 05:00:26;;;;;;;10.60;9.20;;;;;;;27.28;57.28;100093.59;109626;1252;58137;-73
2023/07/06 05:02:58;;;;;;;10.80;9.30;;;;;;;27.34;57.25;100095.39;109588;1253;63747;-73
2023/07/06 05:05:28;;;;;;;12.60;9.00;;;;;;;27.39;57.11;100096.70;109347;1254;57330;-73
2023/07/06 05:07:56;;;;;;;11.30;9.20;;;;;;;27.44;57.19;100101.63;109352;1254;57266;-73
2023/07/06 05:10:25;;;;;;;10.60;8.10;;;;;;;27.48;57.01;100099.88;109591;1253;64266;-73
2023/07/06 05:12:55;;;;;;;10.30;9.10;;;;;;;27.55;56.86;100100.88;109345;1254;58160;-73
2023/07/06 05:15:23;;;;;;;10.40;9.20;;;;;;;27.61;56.78;100101.08;109554;1254;62555;-74
2023/07/06 05:17:53;;;;;;;9.90;9.00;;;;;;;27.68;56.76;100100.74;109307;1256;63949;-73
2023/07/06 05:20:22;;;;;;;10.60;8.60;;;;;;;27.72;56.68;100092.91;109330;1254;57409;-73
2023/07/06 05:22:49;;;;;;;11.20;9.60;;;;;;;27.77;56.39;100090.38;109334;1254;62890;-73
2023/07/06 05:25:17;;;;;;;10.40;9.30;;;;;;;27.76;56.28;100085.55;109587;1254;57451;-73
2023/07/06 05:27:45;;;;;;;9.90;8.90;;;;;;;27.74;56.22;100078.71;109341;1253;63727;-73
2023/07/06 05:30:12;;;;;;;10.30;9.20;;;;;;;27.75;56.31;100076.67;109336;1254;57361;-73
2023/07/06 05:32:40;;;;;;;11.40;9.30;;;;;;;27.79;56.46;100075.92;109352;1254;57411;-73
2023/07/06 05:35:08;;;;;;;12.70;9.50;;;;;;;27.81;56.48;100078.44;109359;1254;62853;-73
2023/07/06 05:37:35;;;;;;;12.40;9.40;;;;;;;27.82;56.47;100087.03;109427;1254;58365;-73
2023/07/06 05:40:04;;;;;;;12.90;10.00;;;;;;;27.84;56.38;100102.80;109569;1253;63815;-73
2023/07/06 05:42:32;;;;;;;12.70;10.50;;;;;;;27.86;56.64;100117.77;109563;1253;57317;-73
2023/07/06 05:44:59;;;;;;;11.40;10.10;;;;;;;27.86;56.44;100122.70;109414;1254;57394;-73
2023/07/06 05:47:27;;;;;;;10.90;9.80;;;;;;;27.85;56.63;100113.74;109441;1254;62793;-73
2023/07/06 05:49:54;;;;;;;11.10;9.90;;;;;;;27.90;56.84;100112.10;109614;1253;57397;-73
2023/07/06 05:52:22;;;;;;;11.10;10.10;;;;;;;28.00;56.63;100116.08;109341;1256;62452;-73
2023/07/06 05:54:49;;;;;;;10.30;9.30;;;;;;;28.09;56.53;100118.38;109359;1254;57355;-73
2023/07/06 05:57:19;;;;;;;11.10;10.00;;;;;;;28.15;56.37;100114.64;109231;1254;57328;-73
2023/07/06 05:59:48;;;;;;;12.10;9.90;;;;;;;28.22;56.20;100113.35;109578;1253;64190;-73
2023/07/06 06:02:17;;;;;;;12.10;10.70;;;;;;;28.29;55.91;100122.66;109314;1253;58326;-73
2023/07/06 06:04:48;;;;;;;13.00;11.20;;;;;;;28.35;55.93;100126.00;109164;1254;63764;-73
2023/07/06 06:07:18;;;;;;;12.80;11.50;;;;;;;28.39;55.88;100115.71;109280;1256;57416;-73
2023/07/06 06:09:47;;;;;;;13.00;11.80;;;;;;;28.41;55.75;100102.86;109418;1254;57275;-73
2023/07/06 06:12:19;;;;;;;13.40;12.00;;;;;;;28.40;55.65;100101.77;109334;1254;66480;-74
2023/07/06 06:14:47;;;;;;;13.20;11.80;;;;;;;28.41;55.76;100104.21;109401;1254;58138;-74
2023/07/06 06:17:15;;;;;;;14.40;13.00;;;;;;;28.41;55.71;100084.06;109456;1253;63746;-73
2023/07/06 06:19:45;;;;;;;14.70;13.30;;;;;;;28.40;55.77;100077.31;109326;1254;57373;-73
2023/07/06 06:22:14;;;;;;;13.90;12.50;;;;;;;28.42;56.01;100074.45;109441;1254;57430;-73
2023/07/06 06:24:42;;;;;;;15.80;13.40;;;;;;;28.44;56.11;100074.80;109448;1254;64336;-72
2023/07/06 06:27:15;;;;;;;15.70;13.30;;;;;;;28.44;56.27;100072.63;109431;1254;57375;-72
2023/07/06 06:29:43;;;;;;;16.40;13.50;;;;;;;28.44;56.33;100070.08;109297;1254;62957;-72
2023/07/06 06:32:10;;;;;;;15.30;12.40;;;;;;;28.45;56.66;100064.88;109449;1254;57392;-73
2023/07/06 06:34:38;;;;;;;17.50;13.50;;;;;;;28.48;56.68;100061.41;109461;1254;57229;-72
2023/07/06 06:37:06;;;;;;;14.20;12.70;;;;;;;28.51;56.62;100057.81;109448;1253;64153;-72
2023/07/06 06:39:33;;;;;;;14.90;12.70;;;;;;;28.60;56.82;100058.17;109413;1254;58150;-73
2023/07/06 06:42:02;;;;;;;14.10;12.70;;;;;;;28.75;56.78;100058.79;109447;1254;63753;-71
2023/07/06 06:44:31;;;;;;;13.80;12.40;;;;;;;28.91;56.61;100057.36;109375;1254;57356;-72
2023/07/06 06:47:01;;;;;;;14.10;12.70;;;;;;;29.04;56.22;100057.49;109432;1254;57877;-72
2023/07/06 06:49:33;;;;;;;12.50;11.30;;;;;;;29.15;55.96;100055.73;109311;1254;64198;-72
2023/07/06 06:52:01;;;;;;;12.70;11.40;;;;;;;29.26;55.72;100053.00;109337;1253;57405;-71
2023/07/06 06:54:30;;;;;;;12.80;11.50;;;;;;;29.35;54.99;100053.51;109457;1254;63750;-72
2023/07/06 06:56:58;;;;;;;12.60;11.30;;;;;;;29.41;54.53;100047.30;109374;1254;57369;-74
2023/07/06 06:59:25;;;;;;;12.40;11.10;;;;;;;29.43;54.12;100046.30;109510;1254;57498;-73
2023/07/06 07:01:54;;;;;;;14.70;11.30;;;;;;;29.47;54.04;100051.55;109400;1254;64166;-75
2023/07/06 07:04:22;;;;;;;13.10;11.70;;;;;;;29.56;53.87;100053.56;109374;1254;58155;-77
2023/07/06 07:06:49;;;;;;;15.70;12.00;;;;;;;29.66;53.95;100048.73;109197;1254;63912;-71
2023/07/06 07:09:17;;;;;;;13.10;11.10;;;;;;;29.79;53.87;100049.58;109229;1256;57385;-72
2023/07/06 07:11:45;;;;;;;11.60;10.60;;;;;;;29.94;53.53;100053.22;109196;1256;57477;-71
2023/07/06 07:14:15;;;;;;;12.10;10.90;;;;;;;30.11;53.27;100053.40;109199;1256;64550;-72
2023/07/06 07:16:43;;;;;;;12.50;10.90;;;;;;;30.26;52.76;100052.02;109211;1256;58171;-72
2023/07/06 07:19:10;;;;;;;40.90;11.20;;;;;;;30.38;52.45;100053.86;109188;1255;63762;-72
2023/07/06 07:21:38;;;;;;;25.90;10.20;;;;;;;30.47;52.06;100051.01;109432;1254;58202;-71
2023/07/06 07:24:06;;;;;;;25.80;10.50;;;;;;;30.58;51.76;100053.38;109222;1256;58235;-73
2023/07/06 07:26:33;;;;;;;19.90;10.90;;;;;;;30.75;51.82;100054.89;109213;1255;63773;-73
2023/07/06 07:29:02;;;;;;;10.70;9.70;;;;;;;30.96;51.22;100059.11;109169;1257;58176;-74
2023/07/06 07:31:30;;;;;;;10.80;9.70;;;;;;;31.14;50.26;100059.33;109255;1254;63922;-74
2023/07/06 07:33:57;;;;;;;10.20;9.20;;;;;;;31.30;49.57;100059.11;109196;1256;58169;-74
2023/07/06 07:36:25;;;;;;;11.90;9.00;;;;;;;31.46;49.38;100061.95;109235;1255;58207;-73
2023/07/06 07:38:56;;;;;;;10.80;8.50;;;;;;;31.59;48.58;100060.85;109407;1256;64914;-73
2023/07/06 07:41:25;;;;;;;10.70;7.90;;;;;;;31.70;47.88;100061.59;109196;1257;58160;-74
2023/07/06 07:43:53;;;;;;;12.50;8.20;;;;;;;31.78;47.46;100060.23;109378;1255;62539;-73
2023/07/06 07:46:20;;;;;;;12.70;8.60;;;;;;;31.84;47.11;100062.38;109182;1256;58189;-72
2023/07/06 07:48:49;;;;;;;11.90;8.80;;;;;;;31.94;47.12;100062.13;109238;1256;58108;-74
2023/07/06 07:51:20;;;;;;;13.60;8.40;;;;;;;32.05;47.04;100063.23;109234;1257;63695;-74
2023/07/06 07:53:47;;;;;;;9.80;8.10;;;;;;;32.15;46.73;100063.91;109189;1256;58268;-72
2023/07/06 07:56:15;;;;;;;8.40;7.20;;;;;;;32.24;46.56;100064.68;109187;1255;63705;-73
2023/07/06 07:58:47;;;;;;;8.10;7.00;;;;;;;32.35;45.77;100067.77;109181;1256;58193;-74
2023/07/06 08:01:17;;;;;;;12.20;7.40;;;;;;;32.44;45.19;100065.14;109262;1255;58048;-74
2023/07/06 08:03:44;;;;;;;10.30;8.30;;;;;;;32.52;45.22;100065.53;109317;1256;63809;-75
2023/07/06 08:06:14;;;;;;;8.80;7.40;;;;;;;32.60;45.14;100061.31;109166;1257;58213;-74
2023/07/06 08:08:43;;;;;;;11.40;8.10;;;;;;;32.67;45.06;100064.86;109092;1255;63790;-73
2023/07/06 08:11:22;;;;;;;9.10;7.80;;;;;;;32.72;45.00;100062.02;109399;1256;58225;-73
2023/07/06 08:13:51;;;;;;;10.80;7.90;;;;;;;32.76;44.94;100062.73;109257;1255;58089;-73
2023/07/06 08:16:19;;;;;;;14.90;8.00;;;;;;;32.85;44.78;100060.70;109257;1255;67140;-74
2023/07/06 08:18:49;;;;;;;10.10;7.90;;;;;;;32.94;44.58;100064.63;109402;1255;58193;-74
2023/07/06 08:21:23;;;;;;;9.70;7.70;;;;;;;33.01;44.22;100065.33;109193;1256;63076;-75
2023/07/06 08:24:11;;;;;;;10.70;7.50;;;;;;;33.09;43.82;100063.61;109152;1255;58076;-75
2023/07/06 08:26:39;;;;;;;9.40;7.20;;;;;;;33.14;43.46;100062.93;109196;1255;58081;-75
2023/07/06 08:29:06;;;;;;;10.20;7.10;;;;;;;33.23;43.22;100067.88;109206;1255;64897;-75
2023/07/06 08:31:34;;;;;;;8.30;6.80;;;;;;;33.35;42.83;100068.84;109439;1255;58179;-74
2023/07/06 08:34:02;;;;;;;11.00;6.80;;;;;;;33.43;42.22;100070.42;109401;1255;63020;-74
2023/07/06 08:36:30;;;;;;;7.70;6.60;;;;;;;33.46;41.69;100068.31;109383;1256;58183;-73
2023/07/06 08:39:00;;;;;;;8.90;6.60;;;;;;;33.51;41.56;100070.33;109224;1255;58182;-74
2023/07/06 08:41:31;;;;;;;7.00;6.30;;;;;;;33.58;41.28;100071.94;109228;1255;71998;-74
2023/07/06 08:43:59;;;;;;;8.60;6.80;;;;;;;33.67;41.12;100070.95;109215;1255;58201;-73
2023/07/06 08:46:29;;;;;;;7.10;6.40;;;;;;;33.78;40.76;100069.74;109176;1255;62588;-72
2023/07/06 08:48:57;;;;;;;7.30;5.90;;;;;;;33.86;40.51;100071.36;109231;1256;58526;-74
2023/07/06 08:51:28;;;;;;;6.20;5.60;;;;;;;33.94;39.67;100071.33;109287;1255;58063;-73
2023/07/06 08:54:00;;;;;;;10.20;5.60;;;;;;;34.02;39.18;100072.59;109149;1255;64911;-73
2023/07/06 08:56:29;;;;;;;6.10;5.50;;;;;;;34.08;38.63;100069.86;109090;1255;58354;-72
2023/07/06 08:58:57;;;;;;;7.00;6.00;;;;;;;34.08;38.73;100070.58;109158;1257;63775;-74
2023/07/06 09:01:26;;;;;;;8.70;6.20;;;;;;;34.03;38.73;100072.52;109216;1255;58118;-72
2023/07/06 09:04:12;;;;;;;10.10;5.90;;;;;;;34.04;38.67;100073.73;109388;1256;58275;-73
2023/07/06 09:06:41;;;;;;;6.40;5.70;;;;;;;34.08;38.79;100069.86;109140;1255;63689;-73
2023/07/06 09:09:08;;;;;;;9.70;5.90;;;;;;;34.19;39.11;100068.74;109163;1257;58235;-72
2023/07/06 09:11:37;;;;;;;9.10;6.10;;;;;;;34.33;38.89;100069.35;109329;1256;63776;-72
2023/07/06 09:14:10;;;;;;;13.10;6.50;;;;;;;34.44;38.24;100068.85;109170;1257;58143;-72
2023/07/06 09:16:46;;;;;;;8.90;7.30;;;;;;;34.50;38.52;100070.00;109294;1256;58057;-75
2023/07/06 09:19:14;;;;;;;7.80;7.00;;;;;;;34.56;39.03;100069.52;109157;1256;65000;-72
2023/07/06 09:21:48;;;;;;;8.40;7.30;;;;;;;34.65;39.20;100067.18;109209;1255;58361;-71
2023/07/06 09:24:16;;;;;;;10.90;7.10;;;;;;;34.77;39.20;100066.73;109166;1256;63772;-72
2023/07/06 09:26:44;;;;;;;7.70;6.90;;;;;;;34.90;38.65;100058.17;109306;1256;58196;-72
2023/07/06 09:29:15;;;;;;;7.90;7.20;;;;;;;35.00;38.35;100059.89;109179;1255;58149;-72
2023/07/06 09:31:43;;;;;;;10.10;6.90;;;;;;;35.04;38.09;100056.72;109186;1256;63892;-71
2023/07/06 09:34:22;;;;;;;9.10;6.60;;;;;;;35.04;38.34;100055.63;109181;1257;58126;-73
2023/07/06 09:36:49;;;;;;;8.20;5.90;;;;;;;35.10;38.19;100055.38;109117;1257;63812;-72
2023/07/06 09:39:17;;;;;;;7.00;6.30;;;;;;;35.20;37.41;100058.66;109314;1255;58202;-73
2023/07/06 09:41:44;;;;;;;7.80;5.50;;;;;;;35.22;37.15;100059.79;109169;1255;58518;-74
2023/07/06 09:44:25;;;;;;;6.40;5.70;;;;;;;35.31;37.06;100058.60;109146;1255;63916;-74
2023/07/06 09:46:55;;;;;;;7.40;5.50;;;;;;;35.43;37.12;100054.95;109078;1256;58176;-72
2023/07/06 09:49:28;;;;;;;7.00;5.20;;;;;;;35.58;36.79;100050.74;109322;1255;65671;-72
2023/07/06 09:51:58;;;;;;;;;;;;;;;35.68;36.58;100047.47;109163;1256;58127;-73
2023/07/06 09:54:32;;;;;;;6.40;4.90;;;;;;;35.79;36.66;100045.89;109132;1256;58152;-73
2023/07/06 09:57:00;;;;;;;5.80;5.20;;;;;;;35.96;36.84;100048.58;109243;1256;63715;-72
2023/07/06 09:59:29;;;;;;;7.20;5.80;;;;;;;36.12;35.87;100051.02;109187;1256;58167;-71
2023/07/06 10:02:36;;;;;;;9.10;5.30;;;;;;;36.20;35.83;100050.63;109172;1257;63739;-71
2023/07/06 10:05:45;;;;;;;6.50;5.60;;;;;;;36.31;35.76;100051.81;109172;1258;58160;-73
2023/07/06 10:08:36;;;;;;;8.00;5.40;;;;;;;36.41;35.62;100051.29;109145;1255;58224;-72
2023/07/06 10:11:20;;;;;;;5.80;5.20;;;;;;;36.57;35.56;100049.59;109067;1255;64960;-73
2023/07/06 10:14:05;;;;;;;9.80;5.30;;;;;;;36.75;35.58;100048.89;109052;1256;58783;-75
2023/07/06 10:17:12;;;;;;;5.40;4.80;;;;;;;36.80;34.72;100045.36;109137;1257;63744;-74
2023/07/06 10:19:55;;;;;;;6.10;4.80;;;;;;;36.76;35.20;100045.05;109046;1257;58126;-72
2023/07/06 10:22:39;;;;;;;7.40;4.90;;;;;;;36.82;35.16;100045.33;109154;1257;58052;-72
2023/07/06 10:25:33;;;;;;;10.50;4.90;;;;;;;36.82;34.91;100049.35;109071;1256;64978;-74
2023/07/06 10:28:11;;;;;;;8.40;4.80;;;;;;;36.88;35.67;100044.45;109154;1256;58129;-73
2023/07/06 10:30:46;;;;;;;7.20;5.30;;;;;;;37.12;35.74;100040.02;109023;1256;63728;-73
2023/07/06 10:33:27;;;;;;;7.80;5.20;;;;;;;37.38;35.02;100042.98;109061;1259;58195;-73
2023/07/06 10:35:58;;;;;;;17.10;5.70;;;;;;;37.52;34.58;100039.54;109054;1256;58033;-73
2023/07/06 10:38:29;;;;;;;14.00;5.40;;;;;;;37.60;34.59;100042.79;109181;1255;64397;-73
2023/07/06 10:41:30;;;;;;;5.20;4.70;;;;;;;37.73;35.03;100045.04;109169;1256;58154;-76
2023/07/06 10:44:59;;;;;;;8.20;5.00;;;;;;;37.95;35.18;100045.72;109067;1257;62560;-73
2023/07/06 10:47:37;;;;;;;9.40;4.80;;;;;;;38.15;34.82;100048.30;109197;1256;58199;-74
2023/07/06 10:50:25;;;;;;;8.40;5.20;;;;;;;38.29;34.24;100043.77;109092;1255;58042;-75
2023/07/06 10:53:37;;;;;;;8.10;4.90;;;;;;;38.40;33.85;100042.55;109154;1255;64922;-73
2023/07/06 10:56:40;;;;;;;6.20;5.00;;;;;;;38.52;33.69;100038.59;109151;1256;58233;-72
2023/07/06 10:59:23;;;;;;;5.20;4.70;;;;;;;38.64;33.55;100037.95;109136;1255;63798;-73
2023/07/06 11:09:26;;;;;;;5.70;5.00;;;;;;;39.29;33.32;100029.27;102711;1295;600155;-73
2023/07/06 11:12:03;;;;;;;10.00;5.70;;;;;;;39.41;32.93;100029.55;104872;1271;59340;-73
2023/07/06 21:21:26;;;;;;;4.40;3.90;;;;;;;26.88;51.51;99956.77;103533;1282;606433;-74
2023/07/06 21:23:52;;;;;;;5.00;3.90;;;;;;;26.90;51.47;99965.91;104902;1263;99873;-74
2023/07/06 21:26:19;;;;;;;5.80;4.00;;;;;;;26.81;51.75;99962.63;105132;1266;59247;-74
2023/07/06 21:28:46;;;;;;;4.40;3.90;;;;;;;26.70;51.94;99961.10;105118;1266;59272;-74
2023/07/06 21:31:12;;;;;;;7.30;4.40;;;;;;;26.57;52.27;99952.73;105106;1266;59347;-74
2023/07/06 21:33:39;;;;;;;6.20;4.00;;;;;;;26.47;52.53;99951.32;105143;1265;63880;-74
2023/07/06 21:36:05;;;;;;;6.00;4.40;;;;;;;26.40;52.72;99957.16;105108;1268;59254;-74
2023/07/06 21:38:33;;;;;;;5.70;3.70;;;;;;;26.36;52.86;99958.88;105080;1265;59506;-74
2023/07/06 21:40:59;;;;;;;5.00;4.10;;;;;;;26.33;52.91;99951.55;105564;1262;63529;-74
2023/07/06 21:43:26;;;;;;;4.60;3.70;;;;;;;26.29;52.98;99945.40;105640;1256;59238;-74
2023/07/06 21:45:53;;;;;;;5.20;4.00;;;;;;;26.24;53.03;99951.89;105619;1253;64051;-74
2023/07/06 21:48:20;;;;;;;4.90;4.00;;;;;;;26.22;53.09;99954.55;105753;1253;59578;-74
2023/07/06 21:50:47;;;;;;;4.90;4.00;;;;;;;26.19;53.24;99951.27;105682;1253;59614;-74
2023/07/06 21:53:14;;;;;;;5.60;4.10;;;;;;;26.16;53.31;99939.09;105598;1254;64373;-74
2023/07/06 21:55:40;;;;;;;4.80;3.80;;;;;;;26.13;53.45;99940.58;105711;1257;59638;-74